Aeroporto :







RITROVATECI SU...

 
LOGIN :

Iscrizione | Disclaimer

   EN    FR    IT 

 









Sommario :    VFR   VFR Marginale   IFR   IFR Intensivo   IFR Molto Intensivo
Visibilità : 
Base nubi : 
>= 8 km
>= 3000ft
5 / 8 km
1000 / 3000 ft
1500m / 5 km
500 / 1000 ft
800 / 1500m
200 / 500 ft
< 800m
< 200 ft
Simboli :   Temporali  Nebbia  Neve Forte  Precipitazioni Forti  Vento > 20 kt






- Altitudine del aeroporto : 23 ft
- Codice IATA : STT


TIST - King

ULTIMO METAR :
  • 250153Z 00000KT 10SM CLR 27/22 A2997 RMK AO2 SLP151 T02670222

METARs OBSOLETI :
  • 250053Z 08004KT 10SM CLR 26/22 A2996 RMK AO2 SLP146 T02610222
  • 242353Z 06003KT 10SM CLR 27/22 A2996 RMK AO2 SLP145 T02670222 10289 20267 51016

TAF TIST
Valido dal 25 a 00 ore il 26 a 00 ore UTC


242343Z 2500/2524 07006KT P6SM -SHRA SCT022 SCT050
FM250500 VRB04KT P6SM VCSH SCT025 SCT040
FM251400 09011KT P6SM FEW030 SCT050
FIR TJZS / America del Nord



MetMap, La meteo Aeronautica in un colpo d'occhio ! - Copyright ORBIFLY Dicembre 2007 - Disclaimer

ORBIFLY MET'MAP TEAM :

Programmazione e sviluppo : Alexandra Zaïnal
Concezione : Baudouin d'Aumeries
Aiuto per la programmazione : Marc-Olivier Méhu
Supporto tecnico e logistico : Manuel Goepfert
Aiuto per la traduzione : Arnaldo La Scala

Contatto : metmap@orbifly.com




FONTI E CREDITI :

   NOAA